createdAt,value
2018-09-17T00:00:42.321Z,15.53
2018-09-17T00:03:11.125Z,7.57
2018-09-17T00:05:40.331Z,7.37
2018-09-17T00:08:09.835Z,8.43
2018-09-17T00:10:38.627Z,7.10
2018-09-17T00:13:07.921Z,11.67
2018-09-17T00:15:36.701Z,12.40
2018-09-17T00:18:05.666Z,9.87
2018-09-17T00:20:34.860Z,10.43
2018-09-17T00:23:03.801Z,9.67
2018-09-17T00:25:32.352Z,7.80
2018-09-17T00:28:01.191Z,10.67
2018-09-17T00:30:30.600Z,11.10
2018-09-17T00:32:59.459Z,10.90
2018-09-17T00:35:28.471Z,14.70
2018-09-17T00:37:57.371Z,11.77
2018-09-17T00:40:26.098Z,12.40
2018-09-17T00:42:54.880Z,11.10
2018-09-17T00:45:23.878Z,10.23
2018-09-17T00:47:52.553Z,10.03
2018-09-17T00:50:21.200Z,10.00
2018-09-17T00:52:50.145Z,8.83
2018-09-17T00:55:19.821Z,10.73
2018-09-17T00:57:48.743Z,13.60
2018-09-17T01:00:17.548Z,13.00
2018-09-17T01:02:47.518Z,16.10
2018-09-17T01:05:17.556Z,12.20
2018-09-17T01:07:46.822Z,13.60
2018-09-17T01:10:15.672Z,13.07
2018-09-17T01:12:44.501Z,9.33
2018-09-17T01:15:13.491Z,9.87
2018-09-17T01:17:42.266Z,9.23
2018-09-17T01:20:11.037Z,7.17
2018-09-17T01:22:39.942Z,11.57
2018-09-17T01:25:08.875Z,10.30
2018-09-17T01:27:38.026Z,11.07
2018-09-17T01:30:07.060Z,11.47
2018-09-17T01:32:35.866Z,12.27
2018-09-17T01:35:04.448Z,14.03
2018-09-17T01:37:33.223Z,12.30
2018-09-17T01:40:02.120Z,11.20
2018-09-17T01:42:30.939Z,13.57
2018-09-17T01:44:59.751Z,10.07
2018-09-17T01:47:28.606Z,9.17
2018-09-17T01:49:58.267Z,14.20
2018-09-17T01:52:27.436Z,12.60
2018-09-17T01:54:56.357Z,13.97
2018-09-17T01:57:25.444Z,10.47
2018-09-17T01:59:54.314Z,13.23
2018-09-17T02:02:23.307Z,14.90
2018-09-17T02:04:52.204Z,13.33
2018-09-17T02:07:21.092Z,13.53
2018-09-17T02:09:50.128Z,13.33
2018-09-17T02:12:18.873Z,10.50
2018-09-17T02:19:44.110Z,18.00
2018-09-17T02:22:12.798Z,12.60
2018-09-17T02:24:41.656Z,9.20
2018-09-17T02:27:10.656Z,11.70
2018-09-17T02:29:39.600Z,9.60
2018-09-17T02:32:09.510Z,10.50
2018-09-17T02:34:38.506Z,16.87
2018-09-17T02:37:07.359Z,14.20
2018-09-17T02:39:36.715Z,20.50
2018-09-17T02:42:06.186Z,15.90
2018-09-17T02:44:35.244Z,13.83
2018-09-17T02:47:04.365Z,13.67
2018-09-17T02:49:33.516Z,12.80
2018-09-17T02:52:02.231Z,13.37
2018-09-17T02:54:31.499Z,17.13
2018-09-17T02:57:00.174Z,16.97
2018-09-17T02:59:29.468Z,16.63
2018-09-17T03:01:58.489Z,12.80
2018-09-17T03:04:27.942Z,13.40
2018-09-17T03:06:56.950Z,11.97
2018-09-17T03:09:25.938Z,11.63
2018-09-17T03:11:54.997Z,12.90
2018-09-17T03:14:30.020Z,15.83
2018-09-17T03:17:12.412Z,12.80
2018-09-17T03:19:42.203Z,15.57
2018-09-17T03:22:11.998Z,19.40
2018-09-17T03:24:40.907Z,20.33
2018-09-17T03:27:09.942Z,16.63
2018-09-17T03:29:38.823Z,15.37
2018-09-17T03:32:07.720Z,11.73
2018-09-17T03:34:36.753Z,21.00
2018-09-17T03:37:05.687Z,16.47
2018-09-17T03:39:34.673Z,15.10
2018-09-17T03:42:03.744Z,23.97
2018-09-17T03:44:32.705Z,21.40
2018-09-17T03:47:02.262Z,18.47
2018-09-17T03:49:31.573Z,14.50
2018-09-17T03:52:00.755Z,20.63
2018-09-17T03:54:29.700Z,21.93
2018-09-17T03:56:58.684Z,21.43
2018-09-17T03:59:27.595Z,15.43
2018-09-17T04:01:56.757Z,15.77
2018-09-17T04:04:25.784Z,21.53
2018-09-17T04:06:54.958Z,23.53
2018-09-17T04:09:24.418Z,35.10
2018-09-17T04:11:53.522Z,22.27
2018-09-17T04:14:22.584Z,27.33
2018-09-17T04:16:52.130Z,18.73
2018-09-17T04:19:21.063Z,23.10
2018-09-17T04:21:49.905Z,18.83
2018-09-17T04:24:18.891Z,19.97
2018-09-17T04:26:48.043Z,21.80
2018-09-17T04:29:16.619Z,19.10
2018-09-17T04:31:45.568Z,18.87
2018-09-17T04:34:14.602Z,20.67
2018-09-17T04:36:43.793Z,19.70
2018-09-17T04:39:14.591Z,23.60
2018-09-17T04:41:43.622Z,18.93
2018-09-17T04:44:12.688Z,26.50
2018-09-17T04:46:42.495Z,15.87
2018-09-17T04:49:11.403Z,18.23
2018-09-17T04:51:40.329Z,20.63
2018-09-17T04:54:09.157Z,24.43
2018-09-17T04:56:38.429Z,24.30
2018-09-17T04:59:07.968Z,26.10
2018-09-17T05:01:37.136Z,22.53
2018-09-17T05:04:06.543Z,20.80
2018-09-17T05:06:36.690Z,20.57
2018-09-17T05:09:07.592Z,22.93
2018-09-17T05:11:37.327Z,23.23
2018-09-17T05:14:06.328Z,32.70
2018-09-17T05:16:35.161Z,27.80
2018-09-17T05:19:04.333Z,21.77
2018-09-17T05:21:33.223Z,21.37
2018-09-17T05:24:02.046Z,17.20
2018-09-17T05:26:30.836Z,22.73
2018-09-17T05:28:59.742Z,22.50
2018-09-17T05:31:28.654Z,17.80
2018-09-17T05:33:57.844Z,17.87
2018-09-17T05:36:27.093Z,21.07
2018-09-17T05:38:55.816Z,18.47
2018-09-17T05:41:24.971Z,24.03
2018-09-17T05:43:53.724Z,22.20
2018-09-17T05:46:22.688Z,19.00
2018-09-17T05:48:52.177Z,20.50
2018-09-17T05:51:20.944Z,21.53
2018-09-17T05:53:49.745Z,21.37
2018-09-17T05:56:18.335Z,20.97
2018-09-17T05:58:47.405Z,18.20
2018-09-17T06:01:17.394Z,20.63
2018-09-17T06:03:46.268Z,22.53
2018-09-17T06:06:14.871Z,23.40
2018-09-17T06:08:43.658Z,21.60
2018-09-17T06:11:12.457Z,20.23
2018-09-17T06:13:41.267Z,19.53
2018-09-17T06:16:09.993Z,25.60
2018-09-17T06:18:38.649Z,17.27
2018-09-17T06:21:07.575Z,30.40
2018-09-17T06:23:36.417Z,16.57
2018-09-17T06:26:05.140Z,20.17
2018-09-17T06:28:34.625Z,18.43
2018-09-17T06:31:03.320Z,18.40
2018-09-17T06:33:31.934Z,17.87
2018-09-17T06:36:00.836Z,16.60
2018-09-17T06:38:29.742Z,18.53
2018-09-17T06:40:58.374Z,16.47
2018-09-17T06:43:27.111Z,17.30
2018-09-17T06:45:56.060Z,15.73
2018-09-17T06:48:24.854Z,10.20
2018-09-17T06:50:54.274Z,16.03
2018-09-17T06:53:22.891Z,14.73
2018-09-17T06:55:51.558Z,13.10
2018-09-17T06:58:20.554Z,12.20
2018-09-17T07:00:49.538Z,12.60
2018-09-17T07:03:18.233Z,12.80
2018-09-17T07:05:46.849Z,12.47
2018-09-17T07:08:15.620Z,11.40
2018-09-17T07:10:44.346Z,12.00
2018-09-17T07:13:13.067Z,11.68
2018-09-17T07:15:41.946Z,11.07
2018-09-17T07:18:10.723Z,11.77
2018-09-17T07:20:39.508Z,10.48
2018-09-17T07:23:08.227Z,9.73
2018-09-17T07:25:36.847Z,11.75
2018-09-17T07:28:05.915Z,13.80
2018-09-17T07:30:34.670Z,11.00
2018-09-17T07:33:03.369Z,12.63
2018-09-17T07:35:32.432Z,10.30
2018-09-17T07:38:01.100Z,8.05
2018-09-17T07:40:29.856Z,8.00
2018-09-17T07:42:58.437Z,13.28
2018-09-17T07:45:27.169Z,10.00
2018-09-17T07:47:56.723Z,10.40
2018-09-17T07:50:25.358Z,9.20
2018-09-17T07:52:54.051Z,8.77
2018-09-17T07:55:23.856Z,8.07
2018-09-17T07:57:52.804Z,9.60
2018-09-17T08:00:21.534Z,9.13
2018-09-17T08:02:50.441Z,10.17
2018-09-17T08:05:20.884Z,7.73
2018-09-17T08:07:49.896Z,9.33
2018-09-17T08:10:20.706Z,13.63
2018-09-17T08:12:50.898Z,8.27
2018-09-17T08:15:21.909Z,7.97
2018-09-17T08:17:52.702Z,8.57
2018-09-17T08:20:21.885Z,7.97
2018-09-17T08:22:51.523Z,9.40
2018-09-17T08:25:20.842Z,9.67
2018-09-17T08:27:50.385Z,10.53
2018-09-17T08:30:19.842Z,8.93
2018-09-17T08:32:49.556Z,9.40
2018-09-17T08:35:18.596Z,12.07
2018-09-17T08:37:47.728Z,9.83
2018-09-17T08:40:17.597Z,7.10
2018-09-17T08:42:46.962Z,8.57
2018-09-17T08:45:16.237Z,13.23
2018-09-17T08:47:46.501Z,10.43
2018-09-17T08:50:15.578Z,9.63
2018-09-17T08:52:44.657Z,11.33
2018-09-17T08:55:19.508Z,4.90
2018-09-17T08:57:54.266Z,5.83
2018-09-17T09:00:26.987Z,7.83
2018-09-17T09:03:01.032Z,16.87
2018-09-17T09:05:34.573Z,6.10
2018-09-17T09:08:03.307Z,4.93
2018-09-17T09:10:37.625Z,11.67
2018-09-17T09:13:24.661Z,12.23
2018-09-17T09:15:53.276Z,3.90
2018-09-17T09:18:22.105Z,8.67
2018-09-17T09:20:51.466Z,8.50
2018-09-17T09:23:20.607Z,8.30
2018-09-17T09:25:49.395Z,11.07
2018-09-17T09:28:18.209Z,28.17
2018-09-17T09:30:47.050Z,6.63
2018-09-17T09:33:16.100Z,9.37
2018-09-17T09:35:45.414Z,11.43
2018-09-17T09:38:14.441Z,33.53
2018-09-17T09:40:43.279Z,5.37
2018-09-17T09:43:11.959Z,5.50
2018-09-17T09:45:41.091Z,3.63
2018-09-17T09:48:10.035Z,10.23
2018-09-17T09:50:38.795Z,3.43
2018-09-17T09:53:07.450Z,13.03
2018-09-17T09:55:36.324Z,10.87
2018-09-17T09:58:05.523Z,7.30
2018-09-17T10:00:40.435Z,3.63
2018-09-17T10:03:44.904Z,12.20
2018-09-17T10:06:15.281Z,38.13
2018-09-17T10:08:49.808Z,14.77
2018-09-17T10:11:23.702Z,13.60
2018-09-17T10:13:58.270Z,14.73
2018-09-17T10:16:26.974Z,8.30
2018-09-17T10:19:00.914Z,3.73
2018-09-17T10:21:29.597Z,10.13
2018-09-17T10:23:58.407Z,10.30
2018-09-17T10:26:27.320Z,5.90
2018-09-17T10:28:55.977Z,5.83
2018-09-17T10:31:25.044Z,5.00
2018-09-17T10:33:53.954Z,5.10
2018-09-17T10:36:23.953Z,17.23
2018-09-17T10:38:52.847Z,8.90
2018-09-17T10:41:21.716Z,4.50
2018-09-17T10:43:50.785Z,5.10
2018-09-17T10:46:19.876Z,14.57
2018-09-17T10:48:48.840Z,5.90
2018-09-17T10:51:17.695Z,7.60
2018-09-17T10:53:46.733Z,8.80
2018-09-17T10:56:15.261Z,4.93
2018-09-17T10:58:44.027Z,5.33
2018-09-17T11:01:12.877Z,4.03
2018-09-17T11:03:41.588Z,4.20
2018-09-17T11:06:10.199Z,5.80
2018-09-17T11:08:38.748Z,15.23
2018-09-17T11:11:07.710Z,19.80
2018-09-17T11:13:36.214Z,27.53
2018-09-17T11:16:05.140Z,16.80
2018-09-17T11:18:34.494Z,16.97
2018-09-17T11:21:03.326Z,36.10
2018-09-17T11:23:31.947Z,6.87
2018-09-17T11:26:00.649Z,6.10
2018-09-17T11:28:29.582Z,4.43
2018-09-17T11:30:58.346Z,16.13
2018-09-17T11:33:26.965Z,5.47
2018-09-17T11:35:55.881Z,8.50
2018-09-17T11:38:24.738Z,15.83
2018-09-17T11:40:53.316Z,5.50
2018-09-17T11:43:26.763Z,5.70
2018-09-17T11:46:00.087Z,6.97
2018-09-17T11:48:32.467Z,5.87
2018-09-17T11:51:01.218Z,5.80
2018-09-17T11:53:37.142Z,9.20
2018-09-17T11:56:22.020Z,6.10
2018-09-17T12:01:59.386Z,16.17
2018-09-17T12:16:02.024Z,7.40
2018-09-17T12:21:24.345Z,35.13
2018-09-17T12:23:53.252Z,10.30
2018-09-17T12:26:22.021Z,8.77
2018-09-17T12:28:56.858Z,8.80
2018-09-17T12:31:26.006Z,4.30
2018-09-17T12:33:55.906Z,5.10
2018-09-17T12:36:24.789Z,9.33
2018-09-17T12:39:01.610Z,10.10
2018-09-17T12:41:33.169Z,5.30
2018-09-17T12:49:49.929Z,5.20
2018-09-17T12:52:21.286Z,16.57
2018-09-17T12:54:50.113Z,8.47
2018-09-17T12:57:25.948Z,13.10
2018-09-17T12:59:57.711Z,8.30
2018-09-17T13:02:28.192Z,7.80
2018-09-17T13:04:58.178Z,8.90
2018-09-17T13:07:33.202Z,24.73
2018-09-17T13:10:02.709Z,31.00
2018-09-17T13:12:31.582Z,22.50
2018-09-17T13:15:00.326Z,13.13
2018-09-17T13:17:29.013Z,5.20
2018-09-17T13:19:57.997Z,9.00
2018-09-17T13:22:28.239Z,8.00
2018-09-17T13:25:01.726Z,5.20
2018-09-17T13:27:30.186Z,5.37
2018-09-17T13:29:59.690Z,7.73
2018-09-17T13:32:28.615Z,5.43
2018-09-17T13:34:57.883Z,5.00
2018-09-17T13:40:19.769Z,4.13
2018-09-17T13:42:48.958Z,10.30
2018-09-17T13:45:17.925Z,5.70
2018-09-17T13:47:46.747Z,5.63
2018-09-17T13:50:15.849Z,6.07
2018-09-17T13:52:49.000Z,6.73
2018-09-17T13:55:18.810Z,13.43
2018-09-17T13:57:47.704Z,6.83
2018-09-17T14:00:23.175Z,8.47
2018-09-17T14:02:58.409Z,6.20
2018-09-17T14:05:27.749Z,5.43
2018-09-17T14:07:56.649Z,13.30
2018-09-17T14:13:18.508Z,4.27
2018-09-17T14:15:53.972Z,4.97
2018-09-17T14:18:23.130Z,4.77
2018-09-17T14:20:52.686Z,4.53
2018-09-17T14:23:22.385Z,4.83
2018-09-17T14:25:52.778Z,11.03
2018-09-17T14:28:30.640Z,4.80
2018-09-17T14:31:01.309Z,5.20
2018-09-17T14:33:39.726Z,4.37
2018-09-17T14:36:10.944Z,5.60
2018-09-17T14:38:50.762Z,6.90
2018-09-17T14:41:23.826Z,4.77
2018-09-17T14:43:54.602Z,5.00
2018-09-17T14:46:23.819Z,6.33
2018-09-17T14:48:52.992Z,8.17
2018-09-17T14:51:24.219Z,5.93
2018-09-17T14:53:54.595Z,8.80
2018-09-17T14:56:25.047Z,9.30
2018-09-17T14:58:53.907Z,5.37
2018-09-17T15:01:24.710Z,8.40
2018-09-17T15:12:33.836Z,4.93
2018-09-17T15:15:04.859Z,6.23
2018-09-17T15:17:33.915Z,10.00
2018-09-17T15:20:05.436Z,6.40
2018-09-17T15:22:34.933Z,6.90
2018-09-17T15:25:03.669Z,7.80
2018-09-17T15:27:33.212Z,5.33
2018-09-17T15:30:02.130Z,7.37
2018-09-17T15:32:31.574Z,5.50
2018-09-17T15:35:00.229Z,4.50
2018-09-17T15:37:29.251Z,6.13
2018-09-17T15:39:57.938Z,4.60
2018-09-17T15:42:26.781Z,4.50
2018-09-17T15:44:55.463Z,11.90
2018-09-17T15:47:24.196Z,4.70
2018-09-17T15:49:52.791Z,4.53
2018-09-17T15:52:21.366Z,5.27
2018-09-17T15:54:50.144Z,4.63
2018-09-17T15:57:18.986Z,9.07
2018-09-17T15:59:47.856Z,4.27
2018-09-17T16:02:16.714Z,5.03
2018-09-17T16:04:45.821Z,6.33
2018-09-17T16:07:15.243Z,4.60
2018-09-17T16:09:43.965Z,6.43
2018-09-17T16:12:14.109Z,12.73
2018-09-17T16:14:43.234Z,19.43
2018-09-17T16:19:41.402Z,27.20
2018-09-17T16:22:10.552Z,11.70
2018-09-17T16:24:39.761Z,9.85
2018-09-17T16:27:08.503Z,8.00
2018-09-17T16:29:37.549Z,9.80
2018-09-17T16:32:06.760Z,10.10
2018-09-17T16:34:35.556Z,7.05
2018-09-17T16:37:04.396Z,7.40
2018-09-17T16:39:33.366Z,4.40
2018-09-17T16:42:02.384Z,4.60
2018-09-17T16:47:00.185Z,6.10
2018-09-17T16:49:29.457Z,6.80
2018-09-17T17:09:17.697Z,4.80
2018-09-17T17:11:46.645Z,7.10
2018-09-17T17:14:15.675Z,5.37
2018-09-17T17:16:44.830Z,6.10
2018-09-17T17:19:14.336Z,5.00
2018-09-17T17:21:44.154Z,12.70
2018-09-17T17:26:41.691Z,6.65
2018-09-17T17:41:33.617Z,14.80
2018-09-17T17:56:26.181Z,16.70
2018-09-17T19:21:02.199Z,10.00
2018-09-17T19:59:01.528Z,13.30
2018-09-17T20:36:10.060Z,11.90
2018-09-17T20:38:39.188Z,10.80
2018-09-17T20:41:08.029Z,15.50
2018-09-17T20:43:37.338Z,13.00
2018-09-17T20:46:06.303Z,12.37
2018-09-17T21:05:53.445Z,10.50
2018-09-17T21:18:17.989Z,11.70
2018-09-17T21:20:46.909Z,11.40
2018-09-17T21:23:16.127Z,12.60
2018-09-17T21:25:46.109Z,13.00
2018-09-17T21:28:14.948Z,14.27
2018-09-17T21:30:43.915Z,14.63
2018-09-17T21:33:12.626Z,11.40
2018-09-17T21:35:41.245Z,13.80
2018-09-17T21:38:10.688Z,13.50
2018-09-17T21:40:39.792Z,10.57
2018-09-17T21:43:09.368Z,14.97
2018-09-17T21:45:51.554Z,7.60
2018-09-17T21:48:22.085Z,11.97
2018-09-17T21:50:50.979Z,13.50
2018-09-17T21:53:20.329Z,15.90
2018-09-17T21:55:49.448Z,9.30
2018-09-17T21:58:19.310Z,16.40
2018-09-17T22:00:53.827Z,18.07
2018-09-17T22:03:22.666Z,10.23
2018-09-17T22:05:52.106Z,11.97
2018-09-17T22:08:23.022Z,23.57
2018-09-17T22:10:52.817Z,10.37
2018-09-17T22:13:22.538Z,12.30
2018-09-17T22:15:52.420Z,12.23
2018-09-17T22:18:21.544Z,11.30
2018-09-17T22:20:51.568Z,11.93
2018-09-17T22:23:21.148Z,12.93
2018-09-17T22:25:51.197Z,12.90
2018-09-17T22:28:22.201Z,15.63
2018-09-17T22:30:51.067Z,15.23
2018-09-17T22:33:20.918Z,10.67
2018-09-17T22:35:49.526Z,10.80
2018-09-17T22:38:19.057Z,16.73
2018-09-17T22:40:48.084Z,10.63
2018-09-17T22:43:16.813Z,13.03
2018-09-17T22:45:46.087Z,9.80
2018-09-17T22:50:44.816Z,10.10
2018-09-17T23:10:34.007Z,9.20
2018-09-17T23:13:03.270Z,11.20
2018-09-17T23:15:32.110Z,16.57
2018-09-17T23:18:01.017Z,17.23
2018-09-17T23:20:30.348Z,14.13
2018-09-17T23:22:59.653Z,13.40
2018-09-17T23:25:29.387Z,15.93
2018-09-17T23:27:59.454Z,12.83
2018-09-17T23:30:29.042Z,12.47
2018-09-17T23:32:58.704Z,14.65
2018-09-17T23:47:52.986Z,19.10
2018-09-17T23:50:22.161Z,14.83
2018-09-17T23:55:21.671Z,14.43
